Terminal Aerodrome Forecast
Issued by NWS Bismarck, ND

Home | Current Version | Previous Version | Text Only | Print | Product List | Glossary On
Versions: 1 2 3 4 5 6 7 8 9 10 11 12 13 14 15 16 17
000
FTUS43 KBIS 272300
TAFBIS
TAF
KBIS 272330Z 2800/2824 24005KT P6SM BKN080
     FM280400 36005KT P6SM BKN035 OVC080
     FM280700 05008KT P6SM OVC020
     FM282100 06008KT P6SM SCT020 BKN050=

USA.gov is the U.S. government's official web portal to all federal, state and local government web resources and services.